Terminal Aerodrome Forecast
Issued by NWS

Home | Current Version | Previous Version | Text Only | Print | Product List | Glossary On
Versions: 1 2 3 4 5 6 7 8 9 10 11 12
000
FTUS45 KFGZ 212300
TAFSEZ
TAF
KSEZ 212320Z 2200/2224 VRB04KT P6SM FEW060 SCT120
     FM220400 05010KT P6SM SKC
     FM221500 VRB05KT P6SM SKC
     FM222000 27008KT P6SM FEW250=

USA.gov is the U.S. government's official web portal to all federal, state and local government web resources and services.